estacionesdemedicion_respira

URL: https://datosabiertos.dip-badajoz.es/dataset/87b2f4b5-49dc-42a7-8d26-d9da0832060f/resource/ce94b5f6-eb71-433b-8fbf-59c7ef0ec939/download/estacionesdemedicion_respira.csv

Este recurso contiene los datos estáticos de cada estación de la red RESPIRA en la provincia de Badajoz.

RESPIRA FIWARE es un dispositivo abierto IoT diseñado para monitorizar temperatura ambiente, humedad relativa y concentraciones de NO2 y de partículas en exteriores.

Incrustar

_id recvTime fiwareServicePath entityType entityId description description_md latitude latitude_md location location_md longitude longitude_md name name_md
1 2020-06-16T10:18:35 /envAirQualityRESPIRA RESPIRA RESPIRA:RESPIRA_240AC4A3EBF8 Estacion RESPIRA en CID Tierra de Barros - Río Matachel 38.56308282 -6.34220115, 38.563082819 -6.34220115 RESPIRA CID Tierra de Barros - Río Matachel
2 2020-06-16T10:18:35 /envAirQualityRESPIRA RESPIRA RESPIRA:RESPIRA_A4CF1275559C Estacion RESPIRA en CID Serena - Vegas Altas 38.85753446 -5.630021148, 38.85753446 -5.630021148 RESPIRA CID Serena - Vegas Altas
3 2020-06-16T10:18:35 /envAirQualityRESPIRA RESPIRA RESPIRA:RESPIRA_807D3AF39838 Estacion RESPIRA en CID Tierra de Barros 38.61196215 -6.6270464, 38.611962147 -6.6270464 RESPIRA CID Tierra de Barros
4 2020-06-16T10:18:35 /envAirQualityRESPIRA RESPIRA RESPIRA:RESPIRA_A4CF12752890 Estacion RESPIRA en CID Municipios Guadiana 38.86376257 -6.100330396, 38.863762567 -6.100330396 RESPIRA CID Municipios Guadiana
5 2020-06-16T10:18:35 /envAirQualityRESPIRA RESPIRA RESPIRA:RESPIRA_A4CF1272B60C Estacion RESPIRA en Anexo CID Talarrubias 39.03339448 -5.230050056, 39.033394478 -5.230050056 RESPIRA CID Talarrubias
6 2020-06-16T10:18:35 /envAirQualityRESPIRA RESPIRA RESPIRA:RESPIRA_246F28179F74 Estacion RESPIRA en CID La Siberia 39.16831681 -5.062342317, 39.168316808 -5.062342317 RESPIRA CID La Siberia
7 2020-06-16T10:18:35 /envAirQualityRESPIRA RESPIRA RESPIRA:RESPIRA_A4CF12758438 Estacion RESPIRA en CID incubadora Cabeza del Buey 38.72730876 -5.218725565, 38.727308762 -5.218725565 RESPIRA CID Cabeza del Buey
8 2020-06-16T10:18:35 /envAirQualityRESPIRA RESPIRA RESPIRA:RESPIRA_807D3AF35A5C Estacion RESPIRA en CID incubadora San VIcente de Alcántara 39.3595148 -7.127319, 39.3595148 -7.127319 RESPIRA CID San VIcente de Alcántara
9 2020-06-16T10:18:35 /envAirQualityRESPIRA RESPIRA RESPIRA:RESPIRA_30AEA4F1D164 Estacion RESPIRA en CID Comarca de Olivenza 38.6794194 -7.0945726, 38.6794194 -7.0945726 RESPIRA CID Comarca de Olivenza
10 2020-06-16T10:18:35 /envAirQualityRESPIRA RESPIRA RESPIRA:RESPIRA_A4CF1272ACE4 Estacion RESPIRA en CID La Serena 38.73113789 -6.547709557, 38.731137894 -6.547709557 RESPIRA CID La Serena
11 2020-06-16T10:18:35 /envAirQualityRESPIRA RESPIRA RESPIRA:RESPIRA_807D3AF3AB0C Estacion RESPIRA en CID Incubadora Talavera la Real 38.87220393 -6.765727401, 38.872203928 -6.765727401 RESPIRA CID Talavera la Real
12 2020-06-16T10:18:35 /envAirQualityRESPIRA RESPIRA RESPIRA:RESPIRA_807D3AF39910 Estacion RESPIRA en RESPIRA CID Vegas Bajas 38.89508289 -6.61945045, 38.895082893 -6.61945045 RESPIRA CID Vegas Bajas
13 2020-06-16T10:18:35 /envAirQualityRESPIRA RESPIRA RESPIRA:RESPIRA_807D3AF39F6C Estacion RESPIRA en CID Municipios Centro 38.8851373 -6.379323006, 38.885137301 -6.379323006 RESPIRA CID Municipios Centro
14 2020-06-16T10:18:35 /envAirQualityRESPIRA RESPIRA RESPIRA:RESPIRA_240AC4A26E00 Estacion RESPIRA en Anexo CID Fregenal de la Sierra 38.16449 -6.6539849, 38.16449 -6.6539849 RESPIRA Anexo CID Fregenal de la Sierra
15 2020-06-16T10:18:35 /envAirQualityRESPIRA RESPIRA RESPIRA:RESPIRA_A4CF12755A8C Estacion RESPIRA en CID Tentudía 38.08617796 -6.279276609, 38.086177961 -6.279276609 RESPIRA CID Tentudía
16 2020-06-16T10:18:35 /envAirQualityRESPIRA RESPIRA RESPIRA:RESPIRA_A4CF1275659C Estacion RESPIRA en CID Campiña Sur 38.23804977 -6.0171497, 38.238049773 -6.0171497 RESPIRA CID Campiña Sur
17 2020-06-16T10:18:35 /envAirQualityRESPIRA RESPIRA RESPIRA:RESPIRA_807D3AF398EC Estacion RESPIRA en CID Sierra Suroeste 38.33213411 -6.77381669, 38.332134107 -6.77381669 RESPIRA CID Sierra Suroeste
18 2020-06-16T10:18:35 /envAirQualityRESPIRA RESPIRA RESPIRA:RESPIRA_A4CF12750498 Estacion RESPIRA en Residencia Universitaria Hernán Cortés 38.8718821 -6.980127018, 38.871882096 -6.980127018 RESPIRA Residencia Universitaria Hernán Cortés
19 2020-06-16T10:18:35 /envAirQualityRESPIRA RESPIRA RESPIRA:RESPIRA_30AEA4F1B87C Estacion RESPIRA en CID Zafra - Río Bodión 38.41909494 -6.410077214, 38.419094944 -6.410077214 RESPIRA CID Zafra - Río Bodión
20 2020-06-16T10:18:35 /envAirQualityRESPIRA RESPIRA RESPIRA:RESPIRA_A4CF127501F8 Estacion RESPIRA en PCTEX de Badajoz 38.88657368 -7.003961205, 38.886573682 -7.003961205 RESPIRA PCTEX
21 2020-06-16T10:18:35 /envAirQualityRESPIRA RESPIRA RESPIRA:RESPIRA_A4CF12755360 Estacion RESPIRA en IES Castelar Badajoz 38.87936194 -6.977992058, 38.879361937 -6.977992058 RESPIRA IES Castelar
22 2020-06-16T10:18:35 /envAirQualityRESPIRA RESPIRA RESPIRA:RESPIRA_A4CF12755D90 Estacion RESPIRA en Fablab Almendralejo 38.6786715 -6.419298649, 38.678671504 -6.419298649 RESPIRA Fablab Almendralejo
23 2020-06-16T10:18:35 /envAirQualityRESPIRA RESPIRA RESPIRA:RESPIRA_807D3AF39E18 Estacion RESPIRA en Casa de la Cultura de Monesterio 38.08758343 -6.271702051, 38.087583426 -6.271702051 RESPIRA AUPEX Monesterio
24 2020-06-16T10:18:35 /envAirQualityRESPIRA RESPIRA RESPIRA:RESPIRA_A4CF12755848 Estacion RESPIRA en Universidad Popular de Cabeza del Buey 38.72158366 -5.218248367, 38.721583664 -5.218248367 RESPIRA AUPEX Cabeza del Buey
25 2020-06-16T10:18:35 /envAirQualityRESPIRA RESPIRA RESPIRA:RESPIRA_30AEA4EAD8D4 Estacion RESPIRA en CID Lacara los Baldios 39.2230007 -7.004091, 39.2230007 -7.004091 RESPIRA CID Lacara los Baldios
26 2020-06-16T10:18:35 /envAirQualityRESPIRA RESPIRA RESPIRA:RESPIRA_807D3AF39794 Estacion interna FIWARE Space 38.88653152 -7.003161873, 38.886531515 -7.003161873 RESPIRA FIWARE Space

Información adicional

Campo Valor
Formato CSV
Licencia Creative Commons Attribution
Tipo de mediotext/csv
datastore activeTrue
formatCSV
package id87b2f4b5-49dc-42a7-8d26-d9da0832060f
revision id48fc14e2-79a7-496f-812a-0088f8791e48
stateactive